Time;durP1;ratioP1;P1;durP2;ratioP2;P2;SDS_P1;SDS_P2;PMS_P1;PMS_P2;Temp;Humidity;BMP_temperature;BMP_pressure;BME280_temperature;BME280_humidity;BME280_pressure;Samples;Min_cycle;Max_cycle;Signal;HPM_P1;HPM_P2
2023/05/10 00:00:46;;;;;;;53.05;25.70;;;;;;;12.72;100.00;100716.69;5111738;27;20796;-71
2023/05/10 00:03:13;;;;;;;54.65;25.90;;;;;;;12.75;100.00;100721.00;5111473;27;20040;-70
2023/05/10 00:05:40;;;;;;;59.60;25.63;;;;;;;12.77;100.00;100708.56;5131145;27;20600;-71
2023/05/10 00:08:07;;;;;;;50.35;24.50;;;;;;;12.78;100.00;100705.00;5104816;27;20039;-70
2023/05/10 00:10:35;;;;;;;56.03;24.50;;;;;;;12.80;100.00;100705.81;5122121;27;20104;-71
2023/05/10 00:13:02;;;;;;;58.53;24.88;;;;;;;12.79;100.00;100705.84;5106824;27;20036;-70
2023/05/10 00:15:30;;;;;;;57.85;25.40;;;;;;;12.79;100.00;100701.44;5112471;27;20044;-71
2023/05/10 00:17:57;;;;;;;54.70;24.33;;;;;;;12.80;100.00;100703.16;5117946;27;20079;-71
2023/05/10 00:20:24;;;;;;;56.45;24.45;;;;;;;12.82;100.00;100708.38;5107034;27;20032;-71
2023/05/10 00:22:51;;;;;;;52.38;23.10;;;;;;;12.85;100.00;100713.56;5109194;27;20234;-71
2023/05/10 00:25:19;;;;;;;55.78;23.85;;;;;;;12.83;100.00;100703.00;5141494;27;20040;-73
2023/05/10 00:27:45;;;;;;;59.78;23.58;;;;;;;12.81;100.00;100710.19;5121223;27;20507;-72
2023/05/10 00:30:13;;;;;;;51.67;23.27;;;;;;;12.82;100.00;100700.44;5123548;27;20046;-73
2023/05/10 00:32:40;;;;;;;52.00;23.20;;;;;;;12.80;100.00;100703.16;5120596;27;20542;-72
2023/05/10 00:35:08;;;;;;;50.08;22.70;;;;;;;12.82;100.00;100711.03;5123232;27;20064;-72
2023/05/10 00:37:35;;;;;;;54.97;23.45;;;;;;;12.81;100.00;100710.19;5124803;27;20036;-72
2023/05/10 00:40:02;;;;;;;55.40;22.77;;;;;;;12.83;100.00;100707.44;5125538;27;20058;-72
2023/05/10 00:42:29;;;;;;;50.03;22.40;;;;;;;12.82;100.00;100703.09;5123436;27;20035;-72
2023/05/10 00:44:57;;;;;;;53.80;23.15;;;;;;;12.86;100.00;100707.34;5123067;27;20028;-72
2023/05/10 00:47:24;;;;;;;49.67;22.90;;;;;;;12.88;100.00;100705.47;5126051;27;20039;-72
2023/05/10 00:49:52;;;;;;;46.03;20.85;;;;;;;12.89;100.00;100709.84;5129447;27;20089;-72
2023/05/10 00:52:19;;;;;;;44.03;20.90;;;;;;;12.90;100.00;100706.25;5130445;27;20044;-72
2023/05/10 00:54:47;;;;;;;44.00;20.88;;;;;;;12.90;100.00;100700.97;5131606;27;20043;-72
2023/05/10 00:57:14;;;;;;;47.55;21.25;;;;;;;12.89;100.00;100707.19;5106990;27;20040;-72
2023/05/10 00:59:41;;;;;;;41.40;20.00;;;;;;;12.91;100.00;100713.28;5129015;27;20040;-72
2023/05/10 01:02:09;;;;;;;42.65;19.77;;;;;;;12.92;100.00;100706.22;5112376;27;20079;-71
2023/05/10 01:04:37;;;;;;;38.40;19.20;;;;;;;12.91;100.00;100702.69;5116127;27;20036;-71
2023/05/10 01:07:04;;;;;;;41.70;18.77;;;;;;;12.91;100.00;100715.06;5133165;27;20036;-71
2023/05/10 01:09:33;;;;;;;38.88;19.00;;;;;;;12.90;100.00;100703.63;5121140;27;20043;-71
2023/05/10 01:12:01;;;;;;;38.97;19.17;;;;;;;12.90;100.00;100703.63;5111903;27;20071;-70
2023/05/10 01:14:30;;;;;;;41.22;20.15;;;;;;;12.88;100.00;100706.34;5112199;27;20036;-70
2023/05/10 01:16:57;;;;;;;45.45;19.42;;;;;;;12.88;100.00;100706.34;5118142;27;20041;-70
2023/05/10 01:19:28;;;;;;;44.17;20.10;;;;;;;12.90;100.00;100708.91;5119206;27;20043;-70
2023/05/10 01:22:49;;;;;;;41.88;19.55;;;;;;;12.88;100.00;100710.75;5114330;27;20032;-71
2023/05/10 01:25:37;;;;;;;44.20;21.13;;;;;;;12.87;100.00;100712.56;5117371;27;20074;-71
2023/05/10 01:28:20;;;;;;;44.83;20.48;;;;;;;12.87;100.00;100707.25;5111898;27;20085;-71
2023/05/10 01:31:15;;;;;;;48.20;21.20;;;;;;;12.89;100.00;100710.72;5109933;27;20048;-71
2023/05/10 01:33:59;;;;;;;43.95;20.63;;;;;;;12.91;100.00;100707.13;5125827;27;20768;-70
2023/05/10 01:36:48;;;;;;;48.00;22.67;;;;;;;12.92;100.00;100703.56;5107058;27;20048;-71
2023/05/10 01:39:36;;;;;;;48.08;21.73;;;;;;;12.89;100.00;100701.91;5125570;27;20044;-71
2023/05/10 01:42:25;;;;;;;43.47;20.92;;;;;;;12.89;100.00;100705.41;5124264;27;20040;-71
2023/05/10 01:45:16;;;;;;;41.53;20.85;;;;;;;12.89;100.00;100707.19;5117844;27;20927;-71
2023/05/10 01:47:49;;;;;;;45.00;19.92;;;;;;;12.91;100.00;100709.78;5109212;27;20574;-71
2023/05/10 01:50:29;;;;;;;39.72;19.65;;;;;;;12.91;100.00;100712.44;5109814;27;20111;-70
2023/05/10 01:53:00;;;;;;;45.63;20.55;;;;;;;12.93;100.00;100713.19;5154415;27;20036;-71
2023/05/10 01:55:39;;;;;;;44.63;19.77;;;;;;;12.92;100.00;100715.00;5124746;27;22202;-71
2023/05/10 01:58:12;;;;;;;46.92;21.38;;;;;;;12.91;100.00;100713.28;5110765;27;20547;-71
2023/05/10 02:00:45;;;;;;;40.50;19.65;;;;;;;12.88;100.00;100713.41;5136996;27;20119;-71
2023/05/10 02:03:15;;;;;;;46.35;21.00;;;;;;;12.87;100.00;100707.25;5109717;27;20070;-71
2023/05/10 02:05:45;;;;;;;44.13;22.08;;;;;;;12.85;100.00;100711.75;5119268;27;20043;-71
2023/05/10 02:08:17;;;;;;;48.47;22.52;;;;;;;12.81;100.00;100707.53;5109217;27;20163;-71
2023/05/10 02:10:47;;;;;;;44.53;20.90;;;;;;;12.81;100.00;100711.94;5108666;27;20036;-71
2023/05/10 02:13:17;;;;;;;48.40;20.77;;;;;;;12.78;100.00;100706.78;5115087;27;20040;-71
2023/05/10 02:15:49;;;;;;;50.30;22.90;;;;;;;12.73;100.00;100717.53;5129360;27;20499;-71
2023/05/10 02:18:18;;;;;;;52.05;23.02;;;;;;;12.72;100.00;100716.69;5121798;27;20111;-71
2023/05/10 02:20:47;;;;;;;53.30;24.20;;;;;;;12.75;100.00;100721.00;5118181;27;20040;-71
2023/05/10 02:23:18;;;;;;;51.10;23.25;;;;;;;12.75;100.00;100723.63;5124973;27;20101;-71
2023/05/10 02:25:47;;;;;;;57.15;25.05;;;;;;;12.74;100.00;100728.06;5115384;27;20040;-71
2023/05/10 02:28:17;;;;;;;55.22;25.73;;;;;;;12.74;100.00;100728.06;5142828;27;20082;-71
2023/05/10 02:30:47;;;;;;;58.45;25.23;;;;;;;12.74;100.00;100717.50;5108205;27;20427;-71
2023/05/10 02:33:14;;;;;;;57.30;24.98;;;;;;;12.73;100.00;100729.00;5127709;27;20036;-71
2023/05/10 02:35:42;;;;;;;52.22;24.17;;;;;;;12.72;100.00;100723.75;5143021;27;20123;-70
2023/05/10 02:38:11;;;;;;;51.17;25.58;;;;;;;12.71;100.00;100730.84;5145621;27;20036;-71
2023/05/10 02:40:41;;;;;;;60.60;26.58;;;;;;;12.72;100.00;100729.03;5129655;27;20040;-71
2023/05/10 02:43:14;;;;;;;64.70;27.00;;;;;;;12.73;100.00;100738.69;5128923;27;20040;-71
2023/05/10 02:45:43;;;;;;;56.15;25.63;;;;;;;12.73;100.00;100739.59;5114620;27;20044;-72
2023/05/10 02:48:10;;;;;;;60.72;27.52;;;;;;;12.74;100.00;100736.03;5107367;28;20032;-72
2023/05/10 02:50:45;;;;;;;62.22;27.33;;;;;;;12.77;100.00;100736.81;5119505;27;20515;-72
2023/05/10 02:53:20;;;;;;;60.13;27.88;;;;;;;12.77;100.00;100737.66;5126657;27;20122;-72
2023/05/10 02:55:56;;;;;;;62.25;27.95;;;;;;;12.79;100.00;100734.94;5123214;27;20044;-72
2023/05/10 02:58:24;;;;;;;81.22;31.10;;;;;;;12.77;100.00;100732.38;5104434;27;20087;-71
2023/05/10 03:00:51;;;;;;;70.82;30.13;;;;;;;12.73;100.00;100736.06;5109939;27;20169;-72
2023/05/10 03:03:19;;;;;;;75.53;30.00;;;;;;;12.74;100.00;100733.38;5142411;27;20043;-71
2023/05/10 03:05:49;;;;;;;76.20;31.15;;;;;;;12.72;100.00;100743.16;5108739;27;20393;-71
2023/05/10 03:08:16;;;;;;;78.00;30.63;;;;;;;12.74;100.00;100740.44;5117755;27;20052;-71
2023/05/10 03:11:24;;;;;;;74.15;30.75;;;;;;;12.70;100.00;100737.06;5120365;27;20118;-71
2023/05/10 03:14:25;;;;;;;82.10;32.42;;;;;;;12.70;100.00;100736.22;5064579;27;20056;-71
2023/05/10 03:17:11;;;;;;;84.82;32.17;;;;;;;12.71;100.00;100737.94;5105479;27;20812;-71
2023/05/10 03:19:58;;;;;;;75.72;32.58;;;;;;;12.69;100.00;100735.31;5104973;27;20036;-71
2023/05/10 03:22:38;;;;;;;82.80;34.22;;;;;;;12.70;100.00;100745.00;5118639;27;20039;-71
2023/05/10 03:25:10;;;;;;;88.82;33.60;;;;;;;12.69;100.00;100748.56;5105979;27;20496;-71
2023/05/10 03:27:43;;;;;;;84.03;33.05;;;;;;;12.68;100.00;100741.53;5118647;27;20522;-72
2023/05/10 03:30:13;;;;;;;88.75;34.08;;;;;;;12.70;100.00;100746.78;5136054;27;20038;-72
2023/05/10 03:32:41;;;;;;;81.80;32.55;;;;;;;12.69;100.00;100747.72;5124904;27;20507;-71
2023/05/10 03:35:13;;;;;;;90.18;34.28;;;;;;;12.71;100.00;100748.50;5143061;27;20478;-70
2023/05/10 03:37:40;;;;;;;92.05;34.22;;;;;;;12.69;100.00;100753.00;5136548;27;20071;-70
2023/05/10 03:40:08;;;;;;;98.97;34.53;;;;;;;12.71;100.00;100751.16;5106837;27;20036;-71
2023/05/10 03:42:38;;;;;;;92.72;35.00;;;;;;;12.70;100.00;100755.56;5113861;27;20555;-70
2023/05/10 03:45:06;;;;;;;89.78;35.13;;;;;;;12.71;100.00;100762.59;5108991;27;20512;-70
2023/05/10 03:47:33;;;;;;;90.03;36.22;;;;;;;12.72;100.00;100760.78;5111081;27;20059;-70
2023/05/10 03:50:02;;;;;;;94.70;34.45;;;;;;;12.71;100.00;100762.59;5119288;27;20173;-71
2023/05/10 03:52:29;;;;;;;101.18;36.00;;;;;;;12.74;100.00;100764.22;5119376;27;20098;-71
2023/05/10 03:54:56;;;;;;;95.55;35.47;;;;;;;12.77;100.00;100771.22;5118460;27;20071;-71
2023/05/10 03:57:24;;;;;;;93.20;35.30;;;;;;;12.77;100.00;100771.22;5121119;27;20568;-71
2023/05/10 03:59:51;;;;;;;97.70;35.70;;;;;;;12.78;100.00;100775.53;5164244;27;20418;-71
2023/05/10 04:02:18;;;;;;;96.63;35.90;;;;;;;12.78;100.00;100767.59;5115983;27;20052;-70
2023/05/10 04:04:45;;;;;;;94.53;35.65;;;;;;;12.77;100.00;100765.91;5105827;28;20071;-71
2023/05/10 04:07:12;;;;;;;105.25;36.35;;;;;;;12.78;100.00;100764.97;5105691;27;20063;-70
2023/05/10 04:09:40;;;;;;;100.38;36.88;;;;;;;12.78;100.00;100767.59;5107427;27;20036;-71
2023/05/10 04:12:07;;;;;;;97.95;37.35;;;;;;;12.80;100.00;100768.41;5087484;27;20043;-71
2023/05/10 04:14:37;;;;;;;92.57;35.72;;;;;;;12.81;100.00;100770.13;5104039;27;20036;-71
2023/05/10 04:17:04;;;;;;;93.68;36.30;;;;;;;12.81;100.00;100781.59;5116880;27;20051;-71
2023/05/10 04:19:31;;;;;;;98.60;37.50;;;;;;;12.82;100.00;100779.81;5106320;27;20111;-71
2023/05/10 04:21:59;;;;;;;100.40;36.78;;;;;;;12.79;100.00;100772.84;5103598;27;20500;-71
2023/05/10 04:24:26;;;;;;;108.05;37.42;;;;;;;12.81;100.00;100775.44;5105955;27;20048;-71
2023/05/10 04:26:54;;;;;;;107.25;37.45;;;;;;;12.83;100.00;100771.78;5113810;27;20036;-70
2023/05/10 04:29:23;;;;;;;98.00;37.22;;;;;;;12.82;100.00;100778.00;5117159;27;20050;-71
2023/05/10 04:31:50;;;;;;;103.88;38.22;;;;;;;12.82;100.00;100777.16;5113296;27;20166;-70
2023/05/10 04:34:18;;;;;;;107.65;38.25;;;;;;;12.81;100.00;100776.31;5128776;27;20032;-71
2023/05/10 04:36:51;;;;;;;104.82;37.67;;;;;;;12.84;100.00;100775.31;5128974;27;20040;-71
2023/05/10 04:39:18;;;;;;;115.63;39.20;;;;;;;12.86;100.00;100776.97;5145637;27;20078;-71
2023/05/10 04:41:48;;;;;;;109.63;38.17;;;;;;;12.87;100.00;100780.50;5124761;27;20263;-72
2023/05/10 04:44:20;;;;;;;110.22;37.85;;;;;;;12.89;100.00;100786.56;5127230;27;20028;-71
2023/05/10 04:46:47;;;;;;;108.05;38.47;;;;;;;12.88;100.00;100783.06;5123194;27;20512;-71
2023/05/10 04:49:14;;;;;;;105.90;38.30;;;;;;;12.92;100.00;100786.44;5121146;27;20051;-71
2023/05/10 04:51:41;;;;;;;112.60;41.15;;;;;;;12.94;100.00;100789.88;5122440;27;20142;-70
2023/05/10 04:54:08;;;;;;;114.32;38.83;;;;;;;12.96;100.00;100788.03;5127084;27;20043;-71
2023/05/10 04:56:35;;;;;;;122.00;39.78;;;;;;;12.98;100.00;100790.63;5129794;27;20521;-71
2023/05/10 04:59:02;;;;;;;116.75;39.70;;;;;;;12.99;100.00;100797.63;5128089;27;20046;-71
2023/05/10 05:01:29;;;;;;;121.00;39.88;;;;;;;12.99;100.00;100798.47;5127490;27;20860;-70
2023/05/10 05:03:56;;;;;;;101.68;37.40;;;;;;;13.00;100.00;100792.28;5132537;27;20042;-70
2023/05/10 05:06:24;;;;;;;105.65;38.42;;;;;;;12.99;100.00;100800.28;5127682;27;20154;-67
2023/05/10 05:08:51;;;;;;;95.00;36.78;;;;;;;12.98;100.00;100794.13;5126969;27;20519;-70
2023/05/10 05:11:19;;;;;;;88.57;36.45;;;;;;;12.98;100.00;100796.75;5126770;27;20042;-70
2023/05/10 05:13:46;;;;;;;80.78;35.85;;;;;;;12.97;100.00;100799.47;5125406;27;20044;-70
2023/05/10 05:16:13;;;;;;;103.88;38.20;;;;;;;13.00;100.00;100799.38;5126192;27;20031;-69
2023/05/10 05:18:40;;;;;;;97.40;34.90;;;;;;;13.03;100.00;100807.16;5126737;27;20091;-71
2023/05/10 05:21:19;;;;;;;77.90;34.22;;;;;;;13.00;100.00;100797.56;5126394;27;20801;-70
2023/05/10 05:23:46;;;;;;;79.60;33.58;;;;;;;12.97;100.00;100799.47;5123462;27;20044;-70
2023/05/10 05:26:14;;;;;;;86.10;34.38;;;;;;;12.93;100.00;100801.41;5128438;27;20032;-70
2023/05/10 05:28:42;;;;;;;82.00;34.55;;;;;;;12.97;100.00;100805.63;5117689;27;20541;-70
2023/05/10 05:31:09;;;;;;;86.28;34.53;;;;;;;13.03;100.00;100802.75;5128252;27;20043;-70
2023/05/10 05:33:36;;;;;;;78.97;32.63;;;;;;;13.08;100.00;100806.97;5127303;27;20050;-71
2023/05/10 05:36:05;;;;;;;81.65;33.90;;;;;;;13.11;100.00;100807.72;5119092;27;20040;-70
2023/05/10 05:38:32;;;;;;;76.45;30.90;;;;;;;13.11;100.00;100815.66;5123085;27;20127;-71
2023/05/10 05:40:59;;;;;;;70.20;31.33;;;;;;;13.10;100.00;100813.94;5121482;27;20101;-71
2023/05/10 05:43:27;;;;;;;66.68;30.55;;;;;;;13.09;100.00;100817.50;5127325;27;20038;-71
2023/05/10 05:45:55;;;;;;;62.50;29.15;;;;;;;13.07;100.00;100811.41;5122173;27;20503;-71
2023/05/10 05:48:22;;;;;;;62.50;29.23;;;;;;;13.05;100.00;100815.91;5127620;27;20499;-70
2023/05/10 05:50:49;;;;;;;57.58;28.42;;;;;;;13.02;100.00;100827.47;5121210;27;20036;-71
2023/05/10 05:53:16;;;;;;;53.05;25.65;;;;;;;13.02;100.00;100827.47;5124425;27;20039;-70
2023/05/10 05:55:57;;;;;;;51.25;24.33;;;;;;;12.97;100.00;100826.78;5127161;27;20466;-70
2023/05/10 05:58:25;;;;;;;58.45;26.58;;;;;;;12.90;100.00;100822.69;5124220;27;20105;-70
2023/05/10 06:00:52;;;;;;;55.80;25.67;;;;;;;12.89;100.00;100829.75;5126436;27;20098;-70
2023/05/10 06:03:20;;;;;;;57.75;28.30;;;;;;;12.85;100.00;100828.16;5126398;27;20055;-70
2023/05/10 06:05:48;;;;;;;64.15;28.80;;;;;;;12.82;100.00;100835.34;5141494;27;20052;-70
2023/05/10 06:08:15;;;;;;;58.08;26.70;;;;;;;12.78;100.00;100837.25;5127623;27;20044;-71
2023/05/10 06:10:42;;;;;;;59.20;26.70;;;;;;;12.73;100.00;100844.50;5124463;27;20580;-71
2023/05/10 06:13:09;;;;;;;61.00;26.98;;;;;;;12.72;100.00;100838.38;5142583;27;20595;-71
2023/05/10 06:15:37;;;;;;;53.83;25.40;;;;;;;12.77;100.00;100838.19;5122055;27;20040;-70
2023/05/10 06:18:04;;;;;;;60.13;26.63;;;;;;;12.82;100.00;100841.50;5128724;27;20029;-70
2023/05/10 06:20:31;;;;;;;59.40;26.77;;;;;;;12.86;100.00;100853.69;5122391;27;20036;-70
2023/05/10 06:22:58;;;;;;;61.63;27.00;;;;;;;12.91;100.00;100847.38;5129059;27;20044;-70
2023/05/10 06:25:26;;;;;;;63.58;26.80;;;;;;;12.93;100.00;100850.78;5127037;27;20089;-70
2023/05/10 06:27:57;;;;;;;60.17;26.63;;;;;;;12.94;100.00;100860.44;5126801;27;20044;-70
2023/05/10 06:30:27;;;;;;;53.72;25.77;;;;;;;12.94;100.00;100852.50;5109716;27;20044;-70
2023/05/10 06:32:55;;;;;;;63.33;27.02;;;;;;;12.96;100.00;100862.13;5127917;27;20035;-70
2023/05/10 06:35:22;;;;;;;60.22;27.98;;;;;;;12.98;100.00;100854.13;5127289;27;20060;-71
2023/05/10 06:37:50;;;;;;;60.47;27.75;;;;;;;13.10;100.00;100860.69;5122503;27;20046;-70
2023/05/10 06:40:18;;;;;;;56.95;27.38;;;;;;;13.28;100.00;100861.75;5125477;27;20560;-71
2023/05/10 06:42:46;;;;;;;61.83;27.00;;;;;;;13.36;100.00;100871.09;5120957;27;20521;-71
2023/05/10 06:45:15;;;;;;;59.78;28.00;;;;;;;13.42;100.00;100864.72;5137489;27;20051;-71
2023/05/10 06:47:42;;;;;;;58.30;27.50;;;;;;;13.47;100.00;100864.53;5123061;27;20043;-70
2023/05/10 06:50:11;;;;;;;52.58;26.45;;;;;;;13.51;100.00;100860.81;5127039;27;20526;-71
2023/05/10 06:52:39;;;;;;;47.97;25.48;;;;;;;13.56;100.00;100863.25;5125808;27;20180;-70
2023/05/10 06:55:06;;;;;;;53.42;27.15;;;;;;;13.59;100.00;100873.72;5124251;27;20085;-70
2023/05/10 06:57:34;;;;;;;54.33;26.58;;;;;;;13.61;100.00;100878.03;5127218;27;20047;-70
2023/05/10 07:00:03;;;;;;;55.38;26.20;;;;;;;13.63;100.00;100881.47;5126701;27;20039;-71
2023/05/10 07:02:31;;;;;;;51.42;26.38;;;;;;;13.61;100.00;100879.84;5128423;27;20044;-71
2023/05/10 07:04:58;;;;;;;53.95;26.33;;;;;;;13.57;100.00;100886.16;5147309;27;20031;-70
2023/05/10 07:07:41;;;;;;;50.40;25.58;;;;;;;13.56;100.00;100887.09;5123075;27;20550;-70
2023/05/10 07:10:08;;;;;;;50.42;26.42;;;;;;;13.51;100.00;100888.16;5128872;27;20416;-70
2023/05/10 07:12:36;;;;;;;56.28;26.75;;;;;;;13.51;100.00;100895.22;5139396;27;20092;-70
2023/05/10 07:15:04;;;;;;;47.47;26.10;;;;;;;13.52;100.00;100894.31;5127905;27;20043;-70
2023/05/10 07:17:31;;;;;;;55.35;27.00;;;;;;;13.55;100.00;100893.31;5110631;27;20046;-70
2023/05/10 07:19:58;;;;;;;50.10;25.15;;;;;;;13.59;100.00;100892.28;5128214;27;20048;-70
2023/05/10 07:22:25;;;;;;;49.42;25.63;;;;;;;13.60;100.00;100897.50;5132013;27;20036;-71
2023/05/10 07:24:52;;;;;;;49.10;25.02;;;;;;;13.60;100.00;100897.50;5128881;27;20039;-71
2023/05/10 07:27:19;;;;;;;47.38;25.17;;;;;;;13.61;100.00;100895.72;5126697;27;20047;-70
2023/05/10 07:29:46;;;;;;;50.05;25.58;;;;;;;13.58;100.00;100898.50;5123323;27;20050;-70
2023/05/10 07:32:13;;;;;;;44.92;23.60;;;;;;;13.57;100.00;100896.75;5125791;27;20705;-70
2023/05/10 07:34:41;;;;;;;47.53;23.42;;;;;;;13.53;100.00;100903.97;5138642;27;20036;-70
2023/05/10 07:37:08;;;;;;;50.47;24.45;;;;;;;13.51;100.00;100905.81;5142551;27;20032;-70
2023/05/10 07:39:35;;;;;;;49.63;25.95;;;;;;;13.51;100.00;100906.72;5142704;27;20093;-71
2023/05/10 07:42:02;;;;;;;41.33;22.35;;;;;;;13.54;100.00;100910.13;5114996;27;20046;-71
2023/05/10 07:44:29;;;;;;;36.20;20.83;;;;;;;13.54;100.00;100915.44;5118207;27;20042;-70
2023/05/10 07:46:56;;;;;;;37.03;20.80;;;;;;;13.51;100.00;100919.94;5104309;28;20040;-70
2023/05/10 07:49:24;;;;;;;39.85;22.58;;;;;;;13.47;100.00;100914.84;5147634;27;20031;-70
2023/05/10 07:51:51;;;;;;;40.67;21.73;;;;;;;13.46;100.00;100915.75;5148663;27;20039;-70
2023/05/10 07:54:18;;;;;;;36.53;21.00;;;;;;;13.46;100.00;100913.97;5148665;27;20035;-70
2023/05/10 07:56:46;;;;;;;43.75;21.20;;;;;;;13.46;100.00;100915.75;5147416;27;20197;-70
2023/05/10 07:59:17;;;;;;;43.90;21.85;;;;;;;13.52;100.00;100912.84;5117033;27;20063;-70
2023/05/10 08:01:44;;;;;;;38.30;20.88;;;;;;;13.57;100.00;100918.84;5130384;27;20044;-71
2023/05/10 08:04:12;;;;;;;41.75;22.95;;;;;;;13.68;100.00;100923.66;5125899;27;20036;-71
2023/05/10 08:06:39;;;;;;;39.92;21.60;;;;;;;13.80;100.00;100919.63;5111475;27;20036;-70
2023/05/10 08:09:08;;;;;;;36.65;21.40;;;;;;;13.90;100.00;100922.75;5126756;27;20529;-70
2023/05/10 08:11:35;;;;;;;36.00;20.70;;;;;;;13.91;100.00;100924.50;5127117;27;20036;-70
2023/05/10 08:14:02;;;;;;;40.15;21.30;;;;;;;13.90;100.00;100928.91;5110976;28;20094;-70
2023/05/10 08:16:29;;;;;;;38.17;22.20;;;;;;;13.86;100.00;100929.09;5126151;27;20048;-70
2023/05/10 08:18:56;;;;;;;45.35;22.65;;;;;;;13.82;100.00;100925.72;5132023;27;20905;-70
2023/05/10 08:21:23;;;;;;;39.33;21.80;;;;;;;13.80;100.00;100930.22;5130351;27;20117;-70
2023/05/10 08:23:50;;;;;;;46.67;22.55;;;;;;;13.75;100.00;100934.88;5144792;27;20044;-70
2023/05/10 08:26:17;;;;;;;39.00;22.40;;;;;;;13.74;100.00;100941.09;5111288;27;20047;-70
2023/05/10 08:28:44;;;;;;;39.92;21.45;;;;;;;13.71;100.00;100941.22;5110637;27;20044;-70
2023/05/10 08:31:11;;;;;;;45.67;23.40;;;;;;;13.69;100.00;100949.25;5113912;27;20047;-70
2023/05/10 08:33:39;;;;;;;43.58;23.48;;;;;;;13.70;100.00;100944.78;5127546;27;20044;-70
2023/05/10 08:36:09;;;;;;;45.33;23.25;;;;;;;13.74;100.00;100944.59;5143406;27;20036;-69
2023/05/10 08:38:37;;;;;;;47.38;24.38;;;;;;;13.81;100.00;100951.38;5127695;27;20113;-70
2023/05/10 08:41:05;;;;;;;46.63;23.60;;;;;;;13.87;100.00;100949.38;5136104;27;20051;-70
2023/05/10 08:43:35;;;;;;;47.20;25.00;;;;;;;13.93;100.00;100962.38;5121852;27;20051;-70
2023/05/10 08:46:07;;;;;;;46.20;25.17;;;;;;;14.06;100.00;100960.06;5109230;28;20036;-70
2023/05/10 08:48:35;;;;;;;44.55;23.60;;;;;;;14.16;100.00;100950.78;5107968;28;20579;-70
2023/05/10 08:51:04;;;;;;;44.95;25.55;;;;;;;14.23;100.00;100949.59;5111505;27;20047;-70
2023/05/10 08:53:35;;;;;;;44.92;25.20;;;;;;;14.32;100.00;100961.59;5110239;28;20109;-70
2023/05/10 08:56:03;;;;;;;48.45;26.05;;;;;;;14.41;100.00;100955.00;5118584;27;20035;-70
2023/05/10 08:58:31;;;;;;;44.75;24.98;;;;;;;14.52;100.00;100968.66;5146815;27;20127;-70
2023/05/10 09:01:00;;;;;;;47.60;24.85;;;;;;;14.67;100.00;100967.13;5111854;27;20043;-70
2023/05/10 09:03:27;;;;;;;38.80;24.02;;;;;;;14.85;100.00;100964.56;5144653;27;20091;-70
2023/05/10 09:05:58;;;;;;;34.85;20.48;;;;;;;15.03;98.09;100971.69;5146864;27;20046;-69
2023/05/10 09:08:26;;;;;;;33.35;20.48;;;;;;;15.09;97.26;100977.63;5116379;27;20043;-70
2023/05/10 09:10:55;;;;;;;32.92;20.48;;;;;;;15.15;96.72;100974.69;5122651;27;20031;-70
2023/05/10 09:13:23;;;;;;;31.17;19.00;;;;;;;15.17;95.27;100978.09;5131073;27;20042;-70
2023/05/10 09:15:52;;;;;;;29.33;18.63;;;;;;;15.22;94.89;100981.41;5128554;27;20500;-70
2023/05/10 09:18:19;;;;;;;26.13;17.02;;;;;;;15.29;93.86;100982.00;5129653;27;20028;-70
2023/05/10 09:20:46;;;;;;;29.35;17.20;;;;;;;15.37;93.14;100985.13;5130159;27;20031;-70
2023/05/10 09:23:13;;;;;;;29.08;16.60;;;;;;;15.38;90.52;100985.06;5129804;27;20036;-70
2023/05/10 09:25:43;;;;;;;26.80;16.05;;;;;;;15.36;90.08;100986.91;5128594;27;20050;-70
2023/05/10 09:28:11;;;;;;;24.95;15.98;;;;;;;15.31;89.08;100991.59;5128056;27;20043;-70
2023/05/10 09:30:39;;;;;;;34.30;17.55;;;;;;;15.27;90.52;100995.31;5128337;27;20503;-71
2023/05/10 09:33:06;;;;;;;28.90;19.08;;;;;;;15.25;91.71;100996.34;5141699;27;20059;-70
2023/05/10 09:35:33;;;;;;;30.00;18.58;;;;;;;15.36;92.38;101000.19;5110797;27;20082;-70
2023/05/10 09:38:04;;;;;;;26.88;18.13;;;;;;;15.53;91.72;101001.19;5151519;27;20070;-70
2023/05/10 09:40:31;;;;;;;26.52;17.08;;;;;;;15.69;92.63;101006.63;5130069;27;20486;-70
2023/05/10 09:43:07;;;;;;;27.38;17.63;;;;;;;15.83;92.58;101003.28;5143912;27;20134;-70
2023/05/10 09:45:35;;;;;;;28.95;18.38;;;;;;;16.02;91.85;101007.69;5128730;27;20040;-70
2023/05/10 09:48:05;;;;;;;28.13;18.80;;;;;;;16.11;90.17;101005.44;5129386;27;20127;-69
2023/05/10 09:50:33;;;;;;;34.47;20.65;;;;;;;16.11;89.18;101016.09;5127935;27;20039;-70
2023/05/10 09:53:03;;;;;;;32.17;19.90;;;;;;;16.04;89.40;101016.47;5129372;27;20518;-70
2023/05/10 09:55:45;;;;;;;30.75;19.05;;;;;;;15.90;86.94;101018.00;5129303;27;20047;-69
2023/05/10 09:58:13;;;;;;;32.50;20.33;;;;;;;15.77;89.35;101020.41;5127618;27;20040;-70
2023/05/10 10:00:52;;;;;;;31.23;19.38;;;;;;;15.71;88.59;101018.03;5129267;27;20040;-70
2023/05/10 10:03:24;;;;;;;37.40;20.00;;;;;;;15.68;89.06;101024.34;5128078;27;20039;-70
2023/05/10 10:05:53;;;;;;;29.60;18.65;;;;;;;15.75;89.07;101018.75;5143751;27;20062;-70
2023/05/10 10:08:20;;;;;;;32.53;20.33;;;;;;;15.87;89.79;101026.16;5150164;27;20494;-70
2023/05/10 10:10:48;;;;;;;28.85;19.02;;;;;;;15.89;86.97;101026.91;5162851;27;20035;-70
2023/05/10 10:13:19;;;;;;;28.63;18.85;;;;;;;15.80;86.55;101030.88;5128229;27;20180;-70
2023/05/10 10:15:50;;;;;;;27.17;18.15;;;;;;;15.71;86.67;101030.47;5123872;27;20036;-70
2023/05/10 10:18:23;;;;;;;29.15;18.98;;;;;;;15.67;88.51;101032.41;5122205;27;20051;-70
2023/05/10 10:20:50;;;;;;;24.55;17.27;;;;;;;15.64;88.21;101032.53;5138440;27;20175;-70
2023/05/10 10:23:17;;;;;;;26.00;18.20;;;;;;;15.53;87.61;101031.28;5144646;27;20044;-70
2023/05/10 10:25:48;;;;;;;31.83;18.73;;;;;;;15.45;87.99;101033.44;5128317;27;20679;-70
2023/05/10 10:28:39;;;;;;;28.50;19.05;;;;;;;15.44;89.06;101033.53;5128521;27;20085;-70
2023/05/10 10:31:40;;;;;;;30.50;18.10;;;;;;;15.50;88.59;101036.75;5128584;27;20082;-70
2023/05/10 10:34:12;;;;;;;22.98;15.93;;;;;;;15.63;89.04;101030.81;5116019;27;20040;-70
2023/05/10 10:36:44;;;;;;;22.75;15.32;;;;;;;15.84;87.82;101036.94;5108572;28;20051;-70
2023/05/10 10:39:12;;;;;;;25.58;16.45;;;;;;;16.02;86.03;101035.16;5134841;27;20036;-70
2023/05/10 10:41:54;;;;;;;21.85;15.10;;;;;;;16.14;84.13;101036.34;5128603;27;20039;-70
2023/05/10 10:44:40;;;;;;;26.45;16.30;;;;;;;16.17;85.41;101030.00;5128185;27;20562;-70
2023/05/10 10:47:29;;;;;;;19.95;12.85;;;;;;;16.25;82.33;101033.13;5142596;27;20066;-70
2023/05/10 10:49:59;;;;;;;23.00;13.75;;;;;;;16.24;83.06;101029.63;5122867;27;20570;-70
2023/05/10 10:52:41;;;;;;;20.92;13.07;;;;;;;16.22;82.59;101034.16;5124022;27;20044;-69
2023/05/10 10:55:18;;;;;;;22.02;13.52;;;;;;;16.10;83.12;101032.97;5110832;27;20036;-70
2023/05/10 10:58:00;;;;;;;20.67;13.60;;;;;;;15.97;83.41;101039.84;5127787;27;20039;-69
2023/05/10 11:00:36;;;;;;;21.10;13.55;;;;;;;15.81;83.83;101032.59;5115794;27;20168;-69
2023/05/10 11:03:14;;;;;;;21.02;14.57;;;;;;;15.78;85.54;101042.50;5121899;27;20090;-70
2023/05/10 11:05:42;;;;;;;27.55;15.60;;;;;;;15.72;85.24;101037.50;5128172;27;20035;-70
2023/05/10 11:08:44;;;;;;;22.90;15.48;;;;;;;15.73;85.86;101044.53;5126654;27;20075;-70
2023/05/10 11:11:14;;;;;;;21.90;15.57;;;;;;;15.74;86.58;101043.59;5123615;27;20051;-71
2023/05/10 11:13:49;;;;;;;24.80;16.05;;;;;;;15.73;86.91;101048.03;5125858;27;20044;-70
2023/05/10 11:16:24;;;;;;;20.30;14.95;;;;;;;15.68;84.94;101042.09;5143962;27;20455;-70